createdAt,value
2023-03-17T00:01:48.493Z,1.60
2023-03-17T00:06:57.264Z,1.60
2023-03-17T00:12:05.190Z,1.30
2023-03-17T00:17:15.008Z,1.30
2023-03-17T00:22:22.543Z,2.60
2023-03-17T00:27:30.910Z,2.80
2023-03-17T00:32:39.973Z,2.70
2023-03-17T00:37:49.038Z,2.70
2023-03-17T00:42:56.080Z,3.20
2023-03-17T00:48:04.766Z,3.40
2023-03-17T00:53:19.054Z,3.80
2023-03-17T00:58:34.100Z,3.80
2023-03-17T01:03:41.842Z,3.90
2023-03-17T01:08:49.275Z,3.60
2023-03-17T01:13:57.293Z,3.90
2023-03-17T01:19:05.330Z,4.00
2023-03-17T01:24:12.178Z,3.90
2023-03-17T01:29:19.775Z,3.70
2023-03-17T01:34:30.640Z,3.70
2023-03-17T01:39:40.759Z,3.60
2023-03-17T01:45:06.641Z,3.50
2023-03-17T01:50:14.429Z,3.70
2023-03-17T01:55:22.908Z,3.80
2023-03-17T02:00:31.301Z,3.80
2023-03-17T02:05:40.571Z,3.90
2023-03-17T02:10:51.763Z,3.80
2023-03-17T02:15:59.781Z,3.70
2023-03-17T02:21:31.594Z,3.50
2023-03-17T02:26:40.181Z,3.50
2023-03-17T02:31:47.586Z,3.60
2023-03-17T02:36:54.880Z,3.70
2023-03-17T02:42:02.147Z,3.80
2023-03-17T02:47:10.748Z,3.90
2023-03-17T02:52:18.182Z,3.60
2023-03-17T02:57:26.093Z,3.80
2023-03-17T03:02:33.663Z,3.90
2023-03-17T03:07:40.345Z,4.00
2023-03-17T03:12:49.215Z,4.00
2023-03-17T03:17:56.019Z,4.20
2023-03-17T03:23:04.442Z,4.00
2023-03-17T03:28:12.402Z,4.20
2023-03-17T03:33:19.602Z,4.30
2023-03-17T03:38:29.057Z,4.10
2023-03-17T03:43:36.402Z,3.80
2023-03-17T03:48:44.198Z,4.10
2023-03-17T03:53:51.337Z,4.20
2023-03-17T03:58:58.621Z,4.20
2023-03-17T04:04:05.723Z,4.20
2023-03-17T04:09:14.322Z,4.30
2023-03-17T04:14:22.684Z,4.30
2023-03-17T04:19:29.708Z,4.10
2023-03-17T04:24:37.397Z,4.30
2023-03-17T04:29:45.783Z,4.30
2023-03-17T04:34:52.865Z,4.10
2023-03-17T04:39:59.821Z,4.20
2023-03-17T04:45:10.426Z,4.10
2023-03-17T04:50:18.225Z,4.10
2023-03-17T04:55:24.726Z,3.50
2023-03-17T05:00:31.745Z,3.40
2023-03-17T05:05:38.679Z,3.80
2023-03-17T05:10:46.327Z,4.00
2023-03-17T05:15:55.945Z,4.20
2023-03-17T05:21:02.877Z,4.40
2023-03-17T05:26:09.566Z,4.60
2023-03-17T05:31:15.460Z,4.60
2023-03-17T05:36:23.585Z,4.50
2023-03-17T05:41:30.498Z,4.60
2023-03-17T05:46:37.520Z,4.80
2023-03-17T05:51:44.350Z,5.10
2023-03-17T05:56:50.971Z,5.10
2023-03-17T06:01:57.934Z,5.20
2023-03-17T06:07:10.189Z,5.40
2023-03-17T06:12:18.281Z,5.40
2023-03-17T06:17:26.074Z,5.70
2023-03-17T06:22:34.569Z,5.60
2023-03-17T06:27:41.295Z,5.80
2023-03-17T06:32:48.499Z,5.70
2023-03-17T06:37:58.218Z,5.50
2023-03-17T06:43:05.556Z,5.90
2023-03-17T06:48:12.560Z,5.60
2023-03-17T06:53:19.557Z,5.70
2023-03-17T06:58:27.288Z,5.90
2023-03-17T07:03:35.779Z,5.80
2023-03-17T07:08:43.147Z,6.00
2023-03-17T07:13:51.136Z,6.30
2023-03-17T07:18:58.760Z,7.00
2023-03-17T07:24:05.419Z,7.10
2023-03-17T07:29:12.929Z,7.30
2023-03-17T07:34:23.722Z,8.10
2023-03-17T07:39:31.346Z,8.20
2023-03-17T07:44:40.080Z,8.30
2023-03-17T07:49:47.014Z,8.90
2023-03-17T07:54:54.189Z,9.30
2023-03-17T08:00:01.591Z,10.00
2023-03-17T08:05:10.483Z,10.00
2023-03-17T08:10:18.464Z,9.80
2023-03-17T08:15:25.297Z,9.50
2023-03-17T08:20:32.660Z,9.90
2023-03-17T08:25:39.629Z,10.40
2023-03-17T08:30:50.371Z,10.30
2023-03-17T08:35:59.025Z,9.80
2023-03-17T08:41:09.506Z,9.90
2023-03-17T08:46:27.297Z,9.90
2023-03-17T08:51:37.436Z,10.50
2023-03-17T08:56:44.342Z,11.40
2023-03-17T09:01:51.838Z,11.40
2023-03-17T09:07:03.643Z,11.90
2023-03-17T09:12:09.659Z,11.10
2023-03-17T09:17:16.462Z,11.10
2023-03-17T09:22:28.363Z,11.30
2023-03-17T09:27:35.970Z,11.60
2023-03-17T09:32:45.175Z,12.40
2023-03-17T09:37:52.559Z,13.00
2023-03-17T09:43:26.633Z,12.70
2023-03-17T09:49:01.692Z,12.00
2023-03-17T09:54:30.926Z,12.30
2023-03-17T09:59:44.366Z,12.80
2023-03-17T10:04:52.016Z,12.90
2023-03-17T10:10:09.390Z,13.10
2023-03-17T10:15:23.886Z,12.20
2023-03-17T10:20:34.861Z,12.20
2023-03-17T10:25:41.676Z,12.60
2023-03-17T10:30:48.531Z,12.10
2023-03-17T10:35:55.409Z,12.50
2023-03-17T10:41:10.317Z,12.50
2023-03-17T10:46:30.270Z,13.00
2023-03-17T10:51:42.024Z,13.00
2023-03-17T10:56:52.618Z,13.20
2023-03-17T11:02:06.451Z,12.70
2023-03-17T11:07:24.195Z,13.00
2023-03-17T11:12:38.852Z,13.00
2023-03-17T11:17:55.944Z,12.80
2023-03-17T11:23:28.959Z,12.50
2023-03-17T11:28:42.709Z,12.90
2023-03-17T11:34:06.303Z,13.10
2023-03-17T11:39:23.591Z,13.00
2023-03-17T11:44:56.956Z,13.00
2023-03-17T11:50:11.607Z,13.20
2023-03-17T11:55:50.280Z,13.20
2023-03-17T12:01:01.168Z,13.40
2023-03-17T12:06:15.744Z,13.30
2023-03-17T12:11:28.373Z,13.10
2023-03-17T12:16:55.927Z,13.50
2023-03-17T12:22:19.113Z,13.80
2023-03-17T12:27:37.253Z,14.00
2023-03-17T12:33:12.195Z,14.00
2023-03-17T12:38:42.369Z,13.90
2023-03-17T12:44:42.571Z,13.90
2023-03-17T12:50:12.742Z,14.00
2023-03-17T12:55:23.625Z,13.70
2023-03-17T13:00:35.222Z,13.60
2023-03-17T13:05:45.159Z,14.10
2023-03-17T13:10:52.341Z,14.00
2023-03-17T13:16:01.425Z,13.50
2023-03-17T13:21:12.648Z,13.80
2023-03-17T13:26:45.002Z,13.90
2023-03-17T13:31:51.999Z,14.60
2023-03-17T13:37:27.708Z,14.40
2023-03-17T13:43:04.633Z,14.30
2023-03-17T13:48:36.534Z,14.70
2023-03-17T13:53:51.196Z,14.40
2023-03-17T13:59:14.572Z,14.10
2023-03-17T14:04:28.023Z,14.50
2023-03-17T14:09:43.744Z,14.70
2023-03-17T14:15:17.961Z,13.70
2023-03-17T14:20:28.970Z,13.00
2023-03-17T14:25:39.442Z,12.60
2023-03-17T14:30:59.076Z,12.30
2023-03-17T14:36:14.141Z,12.00
2023-03-17T14:41:25.495Z,11.70
2023-03-17T14:46:41.296Z,11.60
2023-03-17T14:51:58.502Z,11.60
2023-03-17T14:57:09.445Z,11.50
2023-03-17T15:02:38.580Z,11.50
2023-03-17T15:07:45.971Z,11.50
2023-03-17T15:13:05.011Z,11.50
2023-03-17T15:18:17.554Z,11.70
2023-03-17T15:23:27.143Z,11.80
2023-03-17T15:28:34.268Z,11.80
2023-03-17T15:33:43.035Z,11.80
2023-03-17T15:38:49.603Z,11.70
2023-03-17T15:43:57.026Z,11.50
2023-03-17T15:49:05.816Z,11.30
2023-03-17T15:54:16.015Z,11.30
2023-03-17T15:59:23.055Z,11.40
2023-03-17T16:04:30.474Z,11.10
2023-03-17T16:09:37.729Z,11.00
2023-03-17T16:14:44.833Z,11.00
2023-03-17T16:19:53.843Z,10.90
2023-03-17T16:25:03.016Z,10.70
2023-03-17T16:30:13.487Z,10.60
2023-03-17T16:35:23.502Z,10.20
2023-03-17T16:40:36.083Z,10.10
2023-03-17T16:45:43.043Z,9.70
2023-03-17T16:50:50.644Z,9.70
2023-03-17T16:55:56.972Z,9.40
2023-03-17T17:01:08.060Z,9.30
2023-03-17T17:06:15.789Z,9.00
2023-03-17T17:11:23.902Z,8.90
2023-03-17T17:16:40.959Z,8.90
2023-03-17T17:21:48.499Z,8.70
2023-03-17T17:26:56.604Z,8.40
2023-03-17T17:32:04.734Z,8.10
2023-03-17T17:37:13.478Z,8.20
2023-03-17T17:42:21.390Z,7.90
2023-03-17T17:47:32.114Z,8.10
2023-03-17T17:52:39.966Z,8.00
2023-03-17T17:57:46.381Z,8.00
2023-03-17T18:02:52.835Z,7.90
2023-03-17T18:08:02.568Z,7.90
2023-03-17T18:13:09.848Z,7.60
2023-03-17T18:18:17.747Z,7.60
2023-03-17T18:23:24.831Z,7.60
2023-03-17T18:28:34.196Z,8.00
2023-03-17T18:33:44.032Z,7.50
2023-03-17T18:38:51.566Z,7.30
2023-03-17T18:44:00.444Z,7.40
2023-03-17T18:49:09.245Z,7.30
2023-03-17T18:54:16.597Z,6.90
2023-03-17T18:59:23.914Z,6.80
2023-03-17T19:04:31.196Z,7.00
2023-03-17T19:09:40.512Z,7.30
2023-03-17T19:14:48.014Z,7.20
2023-03-17T19:19:55.122Z,7.40
2023-03-17T19:25:05.464Z,7.20
2023-03-17T19:30:13.795Z,7.00
2023-03-17T19:35:24.833Z,6.90
2023-03-17T19:40:35.235Z,7.20
2023-03-17T19:45:41.932Z,7.10
2023-03-17T19:50:52.265Z,7.00
2023-03-17T19:55:59.653Z,7.00
2023-03-17T20:01:09.617Z,6.90
2023-03-17T20:06:18.367Z,7.20
2023-03-17T20:11:28.740Z,7.40
2023-03-17T20:16:37.110Z,7.40
2023-03-17T20:21:44.506Z,7.30
2023-03-17T20:26:52.860Z,6.90
2023-03-17T20:32:01.573Z,6.50
2023-03-17T20:37:08.885Z,6.40
2023-03-17T20:42:15.663Z,6.80
2023-03-17T20:47:26.383Z,6.30
2023-03-17T20:52:33.584Z,6.30
2023-03-17T20:57:42.900Z,6.20
2023-03-17T21:02:50.822Z,6.20
2023-03-17T21:07:57.795Z,6.40
2023-03-17T21:13:04.717Z,6.20
2023-03-17T21:18:14.742Z,6.30
2023-03-17T21:23:23.984Z,6.30
2023-03-17T21:28:32.014Z,6.30
2023-03-17T21:33:40.684Z,6.30
2023-03-17T21:38:49.552Z,6.30
2023-03-17T21:43:58.256Z,6.20
2023-03-17T21:49:05.787Z,6.20
2023-03-17T21:54:12.861Z,6.30
2023-03-17T21:59:21.776Z,6.20
2023-03-17T22:04:29.617Z,6.10
2023-03-17T22:09:36.587Z,6.00
2023-03-17T22:14:42.322Z,6.00
2023-03-17T22:19:50.101Z,6.00
2023-03-17T22:24:57.762Z,5.90
2023-03-17T22:30:04.977Z,6.00
2023-03-17T22:35:12.201Z,5.80
2023-03-17T22:40:20.265Z,5.80
2023-03-17T22:45:28.098Z,6.10
2023-03-17T22:50:35.415Z,5.90
2023-03-17T22:55:42.342Z,5.80
2023-03-17T23:00:50.877Z,5.70
2023-03-17T23:06:00.487Z,5.80
2023-03-17T23:11:14.966Z,5.50
2023-03-17T23:16:23.361Z,5.70
2023-03-17T23:21:38.106Z,5.70
2023-03-17T23:26:45.705Z,5.70
2023-03-17T23:31:52.434Z,5.60
2023-03-17T23:36:59.800Z,5.70
2023-03-17T23:42:07.228Z,5.80
2023-03-17T23:47:15.539Z,5.80
2023-03-17T23:52:24.339Z,5.80
2023-03-17T23:57:31.903Z,5.80
